createdAt,value
2023-02-01T00:01:26.981Z,-2.26
2023-02-01T00:03:55.128Z,-2.18
2023-02-01T00:06:23.435Z,-2.07
2023-02-01T00:08:56.310Z,-1.94
2023-02-01T00:11:25.770Z,-1.82
2023-02-01T00:13:54.624Z,-1.76
2023-02-01T00:16:30.884Z,-1.74
2023-02-01T00:19:05.677Z,-1.69
2023-02-01T00:21:33.894Z,-1.71
2023-02-01T00:24:02.373Z,-1.71
2023-02-01T00:26:39.144Z,-1.73
2023-02-01T00:29:12.576Z,-1.74
2023-02-01T00:31:40.644Z,-1.73
2023-02-01T00:34:11.017Z,-1.75
2023-02-01T00:36:39.296Z,-1.79
2023-02-01T00:39:07.711Z,-1.81
2023-02-01T00:41:36.556Z,-1.83
2023-02-01T00:44:04.997Z,-1.78
2023-02-01T00:46:33.474Z,-1.72
2023-02-01T00:49:03.426Z,-1.65
2023-02-01T00:51:31.761Z,-1.62
2023-02-01T00:54:00.044Z,-1.60
2023-02-01T00:56:28.948Z,-1.59
2023-02-01T00:58:57.653Z,-1.56
2023-02-01T01:01:28.288Z,-1.58
2023-02-01T01:03:58.997Z,-1.51
2023-02-01T01:06:31.150Z,-1.56
2023-02-01T01:09:01.828Z,-1.60
2023-02-01T01:11:33.204Z,-1.58
2023-02-01T01:14:01.931Z,-1.53
2023-02-01T01:16:32.127Z,-1.49
2023-02-01T01:19:00.767Z,-1.48
2023-02-01T01:21:30.113Z,-1.46
2023-02-01T01:23:58.865Z,-1.45
2023-02-01T01:26:29.615Z,-1.42
2023-02-01T01:28:59.778Z,-1.43
2023-02-01T01:31:30.084Z,-1.41
2023-02-01T01:34:00.758Z,-1.41
2023-02-01T01:36:30.621Z,-1.40
2023-02-01T01:38:59.158Z,-1.39
2023-02-01T01:41:32.345Z,-1.38
2023-02-01T01:44:27.784Z,-1.39
2023-02-01T01:46:56.363Z,-1.35
2023-02-01T01:49:27.672Z,-1.37
2023-02-01T01:52:00.939Z,-1.38
2023-02-01T01:54:41.994Z,-1.38
2023-02-01T01:57:14.445Z,-1.38
2023-02-01T01:59:48.151Z,-1.35
2023-02-01T02:02:16.936Z,-1.34
2023-02-01T02:04:47.374Z,-1.35
2023-02-01T02:07:27.041Z,-1.36
2023-02-01T02:10:00.986Z,-1.37
2023-02-01T02:12:29.761Z,-1.38
2023-02-01T02:14:58.218Z,-1.35
2023-02-01T02:17:45.948Z,-1.34
2023-02-01T02:20:24.115Z,-1.37
2023-02-01T02:22:58.574Z,-1.41
2023-02-01T02:25:55.037Z,-1.40
2023-02-01T02:28:44.890Z,-1.42
2023-02-01T02:31:19.495Z,-1.42
2023-02-01T02:33:47.925Z,-1.43
2023-02-01T02:36:38.298Z,-1.41
2023-02-01T02:39:10.055Z,-1.42
2023-02-01T02:42:12.236Z,-1.43
2023-02-01T02:45:40.646Z,-1.46
2023-02-01T02:48:14.941Z,-1.47
2023-02-01T02:51:18.851Z,-1.44
2023-02-01T02:54:32.189Z,-1.41
2023-02-01T02:57:23.717Z,-1.39
2023-02-01T03:00:12.786Z,-1.35
2023-02-01T03:03:00.445Z,-1.35
2023-02-01T03:05:41.698Z,-1.30
2023-02-01T03:08:13.243Z,-1.29
2023-02-01T03:11:17.273Z,-1.27
2023-02-01T03:14:14.771Z,-1.25
2023-02-01T03:16:59.959Z,-1.14
2023-02-01T03:19:36.922Z,-1.11
2023-02-01T03:22:09.826Z,-1.09
2023-02-01T03:24:52.895Z,-1.05
2023-02-01T03:27:55.562Z,-1.02
2023-02-01T03:30:31.050Z,-1.01
2023-02-01T03:33:01.850Z,-0.99
2023-02-01T03:36:05.573Z,-0.95
2023-02-01T03:38:39.074Z,-0.91
2023-02-01T03:41:17.977Z,-0.87
2023-02-01T03:43:55.628Z,-0.84
2023-02-01T03:46:37.702Z,-0.79
2023-02-01T03:49:12.439Z,-0.76
2023-02-01T03:51:42.082Z,-0.72
2023-02-01T03:54:16.375Z,-0.68
2023-02-01T03:56:47.911Z,-0.59
2023-02-01T03:59:16.318Z,-0.58
2023-02-01T04:01:44.683Z,-0.57
2023-02-01T04:04:21.053Z,-0.53
2023-02-01T04:06:52.623Z,-0.50
2023-02-01T04:09:21.495Z,-0.46
2023-02-01T04:11:49.670Z,-0.45
2023-02-01T04:14:18.252Z,-0.44
2023-02-01T04:16:46.627Z,-0.40
2023-02-01T04:19:15.025Z,-0.40
2023-02-01T04:21:43.381Z,-0.41
2023-02-01T04:24:11.937Z,-0.39
2023-02-01T04:26:40.121Z,-0.39
2023-02-01T04:29:11.087Z,-0.39
2023-02-01T04:31:39.330Z,-0.37
2023-02-01T04:34:08.065Z,-0.36
2023-02-01T04:36:36.193Z,-0.40
2023-02-01T04:39:04.734Z,-0.48
2023-02-01T04:41:33.107Z,-0.51
2023-02-01T04:44:01.327Z,-0.48
2023-02-01T04:46:29.843Z,-0.41
2023-02-01T04:48:58.202Z,-0.36
2023-02-01T04:51:26.530Z,-0.33
2023-02-01T04:53:56.953Z,-0.28
2023-02-01T04:56:25.642Z,-0.29
2023-02-01T04:58:53.926Z,-0.27
2023-02-01T05:01:22.138Z,-0.25
2023-02-01T05:03:50.475Z,-0.24
2023-02-01T05:06:18.649Z,-0.21
2023-02-01T05:08:46.666Z,-0.17
2023-02-01T05:11:34.205Z,-0.15
2023-02-01T05:14:02.758Z,-0.13
2023-02-01T05:16:31.005Z,-0.10
2023-02-01T05:18:59.618Z,-0.05
2023-02-01T05:21:28.198Z,-0.04
2023-02-01T05:24:14.173Z,-0.06
2023-02-01T05:26:42.700Z,-0.04
2023-02-01T05:29:11.981Z,-0.07
2023-02-01T05:31:41.152Z,-0.07
2023-02-01T05:34:09.603Z,-0.12
2023-02-01T05:36:37.823Z,-0.13
2023-02-01T05:39:06.124Z,-0.20
2023-02-01T05:41:34.214Z,-0.26
2023-02-01T05:44:03.792Z,-0.29
2023-02-01T05:46:32.335Z,-0.32
2023-02-01T05:49:00.814Z,-0.30
2023-02-01T05:51:29.030Z,-0.36
2023-02-01T05:53:57.232Z,-0.36
2023-02-01T05:56:25.590Z,-0.41
2023-02-01T05:58:54.015Z,-0.41
2023-02-01T06:01:22.552Z,-0.44
2023-02-01T06:03:50.769Z,-0.43
2023-02-01T06:06:20.810Z,-0.45
2023-02-01T06:08:49.236Z,-0.42
2023-02-01T06:11:30.650Z,-0.41
2023-02-01T06:14:00.950Z,-0.41
2023-02-01T06:16:29.381Z,-0.37
2023-02-01T06:18:57.520Z,-0.34
2023-02-01T06:21:26.050Z,-0.37
2023-02-01T06:23:55.921Z,-0.34
2023-02-01T06:26:24.554Z,-0.32
2023-02-01T06:28:53.594Z,-0.33
2023-02-01T06:31:22.888Z,-0.30
2023-02-01T06:33:52.576Z,-0.28
2023-02-01T06:36:22.520Z,-0.25
2023-02-01T06:38:50.711Z,-0.23
2023-02-01T06:41:19.181Z,-0.21
2023-02-01T06:43:47.493Z,-0.14
2023-02-01T06:46:16.382Z,-0.07
2023-02-01T06:48:44.609Z,-0.03
2023-02-01T06:51:27.647Z,-0.03
2023-02-01T06:53:57.198Z,0.01
2023-02-01T06:56:26.765Z,0.04
2023-02-01T06:58:55.365Z,0.08
2023-02-01T07:01:23.625Z,0.12
2023-02-01T07:03:52.388Z,0.18
2023-02-01T07:06:20.904Z,0.18
2023-02-01T07:08:49.997Z,0.19
2023-02-01T07:11:20.029Z,0.19
2023-02-01T07:13:48.407Z,0.25
2023-02-01T07:16:19.470Z,0.26
2023-02-01T07:18:48.482Z,0.24
2023-02-01T07:21:16.702Z,0.26
2023-02-01T07:23:44.772Z,0.24
2023-02-01T07:26:15.019Z,0.28
2023-02-01T07:28:43.592Z,0.29
2023-02-01T07:31:19.260Z,0.31
2023-02-01T07:33:48.236Z,0.32
2023-02-01T07:36:18.187Z,0.31
2023-02-01T07:38:50.120Z,0.31
2023-02-01T07:41:19.226Z,0.32
2023-02-01T07:43:47.703Z,0.35
2023-02-01T07:46:16.692Z,0.34
2023-02-01T07:48:44.983Z,0.31
2023-02-01T07:51:16.060Z,0.32
2023-02-01T07:53:45.748Z,0.35
2023-02-01T07:56:23.781Z,0.32
2023-02-01T07:58:54.360Z,0.35
2023-02-01T08:01:25.793Z,0.36
2023-02-01T08:03:56.874Z,0.34
2023-02-01T08:06:26.341Z,0.34
2023-02-01T08:08:55.720Z,0.33
2023-02-01T08:11:25.092Z,0.37
2023-02-01T08:13:56.862Z,0.34
2023-02-01T08:16:26.205Z,0.32
2023-02-01T08:18:55.354Z,0.30
2023-02-01T08:21:26.828Z,0.31
2023-02-01T08:23:55.084Z,0.28
2023-02-01T08:26:27.692Z,0.24
2023-02-01T08:29:02.652Z,0.17
2023-02-01T08:31:32.149Z,0.07
2023-02-01T08:34:02.629Z,0.04
2023-02-01T08:36:31.875Z,0.09
2023-02-01T08:39:00.244Z,0.15
2023-02-01T08:41:31.280Z,0.18
2023-02-01T08:43:59.445Z,0.23
2023-02-01T08:46:27.727Z,0.31
2023-02-01T08:48:56.599Z,0.37
2023-02-01T08:51:25.171Z,0.45
2023-02-01T08:53:53.797Z,0.52
2023-02-01T08:56:22.510Z,0.67
2023-02-01T08:58:50.835Z,0.65
2023-02-01T09:01:19.068Z,0.69
2023-02-01T09:03:47.898Z,0.68
2023-02-01T09:06:17.442Z,0.67
2023-02-01T09:08:45.806Z,0.72
2023-02-01T09:11:17.530Z,0.80
2023-02-01T09:13:46.140Z,0.83
2023-02-01T09:16:14.971Z,0.92
2023-02-01T09:18:55.458Z,1.03
2023-02-01T09:21:25.176Z,1.21
2023-02-01T09:23:53.588Z,1.19
2023-02-01T09:26:26.583Z,1.28
2023-02-01T09:28:58.789Z,1.25
2023-02-01T09:31:27.450Z,1.33
2023-02-01T09:33:55.950Z,1.41
2023-02-01T09:36:25.228Z,1.57
2023-02-01T09:38:54.458Z,1.76
2023-02-01T09:41:39.285Z,1.88
2023-02-01T09:44:43.709Z,1.85
2023-02-01T09:47:16.197Z,1.94
2023-02-01T09:50:04.686Z,2.04
2023-02-01T09:52:42.753Z,2.00
2023-02-01T09:55:44.055Z,2.01
2023-02-01T09:58:27.150Z,2.04
2023-02-01T10:00:58.405Z,2.03
2023-02-01T10:03:31.278Z,1.97
2023-02-01T10:06:22.614Z,1.91
2023-02-01T10:08:54.584Z,2.01
2023-02-01T10:11:52.016Z,2.02
2023-02-01T10:14:44.057Z,2.12
2023-02-01T10:17:27.151Z,2.13
2023-02-01T10:20:14.605Z,2.04
2023-02-01T10:23:16.289Z,2.01
2023-02-01T10:25:55.618Z,2.05
2023-02-01T10:28:27.341Z,2.11
2023-02-01T10:30:59.957Z,2.13
2023-02-01T10:33:34.411Z,2.12
2023-02-01T10:36:22.846Z,2.02
2023-02-01T10:38:51.503Z,2.14
2023-02-01T10:41:23.404Z,2.20
2023-02-01T10:43:57.388Z,2.16
2023-02-01T10:46:26.866Z,2.09
2023-02-01T10:48:57.649Z,2.05
2023-02-01T10:51:30.729Z,2.05
2023-02-01T10:54:04.628Z,1.89
2023-02-01T10:56:33.040Z,1.92
2023-02-01T10:59:04.596Z,1.97
2023-02-01T11:01:40.595Z,1.92
2023-02-01T11:04:14.684Z,1.83
2023-02-01T11:06:45.754Z,1.82
2023-02-01T11:09:22.149Z,1.63
2023-02-01T11:11:50.733Z,1.52
2023-02-01T11:14:28.814Z,1.49
2023-02-01T11:17:01.319Z,1.50
2023-02-01T11:19:30.647Z,1.47
2023-02-01T11:22:02.042Z,1.39
2023-02-01T11:24:34.663Z,1.31
2023-02-01T11:27:07.108Z,1.25
2023-02-01T11:29:41.553Z,1.14
2023-02-01T11:32:11.876Z,1.14
2023-02-01T11:34:53.265Z,1.14
2023-02-01T11:37:35.358Z,1.10
2023-02-01T11:40:27.092Z,1.12
2023-02-01T11:43:01.310Z,1.12
2023-02-01T11:45:38.719Z,1.12
2023-02-01T11:48:15.046Z,1.04
2023-02-01T11:51:18.986Z,1.03
2023-02-01T11:54:07.431Z,1.05
2023-02-01T11:56:47.084Z,1.10
2023-02-01T11:59:25.208Z,1.11
2023-02-01T12:02:08.757Z,1.14
2023-02-01T12:04:46.546Z,1.20
2023-02-01T12:07:23.677Z,1.29
2023-02-01T12:10:35.770Z,1.35
2023-02-01T12:13:43.958Z,1.52
2023-02-01T12:16:45.980Z,1.44
2023-02-01T12:19:29.364Z,1.46
2023-02-01T12:22:17.787Z,1.56
2023-02-01T12:24:51.605Z,1.60
2023-02-01T12:27:43.539Z,1.63
2023-02-01T12:30:17.960Z,1.67
2023-02-01T12:33:14.293Z,1.65
2023-02-01T12:36:15.165Z,1.67
2023-02-01T12:39:07.364Z,1.71
2023-02-01T12:41:51.343Z,1.78
2023-02-01T12:44:22.462Z,1.87
2023-02-01T12:46:55.769Z,1.94
2023-02-01T12:49:35.237Z,2.04
2023-02-01T12:52:11.254Z,2.08
2023-02-01T12:55:16.317Z,2.14
2023-02-01T12:57:51.032Z,2.14
2023-02-01T13:00:33.845Z,2.08
2023-02-01T13:03:50.668Z,2.09
2023-02-01T13:06:44.759Z,2.13
2023-02-01T13:09:31.673Z,2.28
2023-02-01T13:12:08.653Z,2.30
2023-02-01T13:14:53.586Z,2.30
2023-02-01T13:17:29.136Z,2.28
2023-02-01T13:20:04.111Z,2.17
2023-02-01T13:22:54.707Z,2.14
2023-02-01T13:25:53.086Z,2.13
2023-02-01T13:28:41.131Z,2.06
2023-02-01T13:31:31.500Z,1.97
2023-02-01T13:34:31.783Z,1.86
2023-02-01T13:37:19.090Z,1.83
2023-02-01T13:40:08.159Z,1.71
2023-02-01T13:42:52.860Z,1.63
2023-02-01T13:45:32.145Z,1.57
2023-02-01T13:48:05.458Z,1.59
2023-02-01T13:50:42.219Z,1.59
2023-02-01T13:53:14.003Z,1.51
2023-02-01T13:55:52.206Z,1.43
2023-02-01T13:58:23.579Z,1.38
2023-02-01T14:00:54.820Z,1.36
2023-02-01T14:03:44.137Z,1.36
2023-02-01T14:06:39.371Z,1.33
2023-02-01T14:09:13.215Z,1.29
2023-02-01T14:11:49.352Z,1.31
2023-02-01T14:14:17.614Z,1.27
2023-02-01T14:17:12.370Z,1.30
2023-02-01T14:19:40.885Z,1.24
2023-02-01T14:22:35.098Z,1.23
2023-02-01T14:25:03.330Z,1.26
2023-02-01T14:27:37.186Z,1.25
2023-02-01T14:30:15.704Z,1.21
2023-02-01T14:32:47.797Z,1.17
2023-02-01T14:35:23.118Z,1.10
2023-02-01T14:38:03.725Z,1.04
2023-02-01T14:40:33.129Z,0.98
2023-02-01T14:43:01.392Z,0.89
2023-02-01T14:45:30.294Z,0.85
2023-02-01T14:48:07.253Z,0.86
2023-02-01T14:50:42.708Z,0.82
2023-02-01T14:53:11.082Z,0.79
2023-02-01T14:55:53.859Z,0.79
2023-02-01T14:58:30.898Z,0.78
2023-02-01T15:01:35.581Z,0.78
2023-02-01T15:04:23.133Z,0.75
2023-02-01T15:06:59.473Z,0.76
2023-02-01T15:09:35.347Z,0.70
2023-02-01T15:12:12.828Z,0.75
2023-02-01T15:14:50.528Z,0.79
2023-02-01T15:17:35.143Z,0.82
2023-02-01T15:20:13.375Z,0.75
2023-02-01T15:22:41.712Z,0.74
2023-02-01T15:25:21.816Z,0.75
2023-02-01T15:27:50.510Z,0.72
2023-02-01T15:30:26.284Z,0.72
2023-02-01T15:33:08.037Z,0.66
2023-02-01T15:35:47.750Z,0.64
2023-02-01T15:38:25.058Z,0.60
2023-02-01T15:41:02.683Z,0.63
2023-02-01T15:43:34.710Z,0.59
2023-02-01T15:46:08.490Z,0.57
2023-02-01T15:48:50.492Z,0.63
2023-02-01T15:51:24.979Z,0.66
2023-02-01T15:53:59.971Z,0.71
2023-02-01T15:56:33.952Z,0.69
2023-02-01T15:59:05.978Z,0.71
2023-02-01T16:01:40.541Z,0.69
2023-02-01T16:04:21.158Z,0.68
2023-02-01T16:07:05.702Z,0.70
2023-02-01T16:09:50.263Z,0.71
2023-02-01T16:12:24.473Z,0.72
2023-02-01T16:14:52.798Z,0.70
2023-02-01T16:17:20.942Z,0.72
2023-02-01T16:19:49.148Z,0.68
2023-02-01T16:22:17.245Z,0.66
2023-02-01T16:24:45.294Z,0.64
2023-02-01T16:27:13.457Z,0.67
2023-02-01T16:29:42.923Z,0.66
2023-02-01T16:32:20.163Z,0.66
2023-02-01T16:34:49.256Z,0.65
2023-02-01T16:37:22.113Z,0.66
2023-02-01T16:39:50.235Z,0.71
2023-02-01T16:42:18.699Z,0.77
2023-02-01T16:44:46.923Z,0.82
2023-02-01T16:47:22.383Z,0.86
2023-02-01T16:49:52.394Z,0.86
2023-02-01T16:52:26.451Z,0.86
2023-02-01T16:54:54.677Z,0.83
2023-02-01T16:57:24.516Z,0.80
2023-02-01T16:59:52.653Z,0.82
2023-02-01T17:02:21.943Z,0.85
2023-02-01T17:04:50.203Z,0.88
2023-02-01T17:07:20.159Z,0.91
2023-02-01T17:09:48.934Z,0.77
2023-02-01T17:12:30.658Z,0.73
2023-02-01T17:14:59.910Z,0.58
2023-02-01T17:17:39.367Z,0.49
2023-02-01T17:20:08.608Z,0.40
2023-02-01T17:22:36.804Z,0.28
2023-02-01T17:25:15.007Z,0.28
2023-02-01T17:27:43.224Z,0.25
2023-02-01T17:30:13.247Z,0.13
2023-02-01T17:32:42.351Z,0.08
2023-02-01T17:35:26.364Z,0.08
2023-02-01T17:37:55.503Z,0.09
2023-02-01T17:40:24.648Z,0.08
2023-02-01T17:42:57.618Z,0.00
2023-02-01T17:45:36.597Z,-0.01
2023-02-01T17:48:06.722Z,-0.08
2023-02-01T17:50:38.846Z,-0.12
2023-02-01T17:53:10.061Z,-0.15
2023-02-01T17:55:42.483Z,-0.20
2023-02-01T17:58:16.239Z,-0.16
2023-02-01T18:00:46.193Z,-0.16
2023-02-01T18:03:23.463Z,-0.12
2023-02-01T18:05:54.033Z,-0.11
2023-02-01T18:08:25.201Z,-0.03
2023-02-01T18:11:01.301Z,-0.01
2023-02-01T18:13:31.466Z,0.05
2023-02-01T18:16:00.068Z,0.06
2023-02-01T18:18:30.912Z,0.11
2023-02-01T18:20:59.707Z,0.17
2023-02-01T18:23:27.933Z,0.17
2023-02-01T18:25:56.129Z,0.13
2023-02-01T18:28:24.260Z,0.13
2023-02-01T18:30:52.760Z,0.09
2023-02-01T18:33:21.301Z,0.15
2023-02-01T18:35:49.811Z,0.13
2023-02-01T18:38:18.421Z,0.09
2023-02-01T18:40:49.511Z,0.09
2023-02-01T18:43:18.485Z,0.08
2023-02-01T18:45:47.656Z,0.11
2023-02-01T18:48:18.019Z,0.07
2023-02-01T18:50:46.633Z,0.07
2023-02-01T18:53:20.153Z,0.01
2023-02-01T18:55:51.505Z,0.05
2023-02-01T18:58:19.598Z,0.10
2023-02-01T19:00:47.798Z,0.11
2023-02-01T19:03:16.315Z,0.15
2023-02-01T19:05:45.980Z,0.13
2023-02-01T19:08:14.058Z,0.15
2023-02-01T19:10:43.007Z,0.20
2023-02-01T19:13:14.566Z,0.22
2023-02-01T19:15:42.843Z,0.21
2023-02-01T19:18:11.042Z,0.21
2023-02-01T19:20:45.620Z,0.22
2023-02-01T19:23:14.456Z,0.21
2023-02-01T19:25:47.840Z,0.22
2023-02-01T19:28:19.078Z,0.18
2023-02-01T19:30:47.180Z,0.18
2023-02-01T19:33:17.173Z,0.17
2023-02-01T19:35:45.330Z,0.16
2023-02-01T19:38:13.496Z,0.17
2023-02-01T19:40:41.988Z,0.19
2023-02-01T19:43:10.136Z,0.17
2023-02-01T19:45:38.550Z,0.19
2023-02-01T19:48:07.894Z,0.18
2023-02-01T19:50:36.243Z,0.22
2023-02-01T19:53:04.390Z,0.20
2023-02-01T19:55:32.918Z,0.19
2023-02-01T19:58:02.479Z,0.19
2023-02-01T20:00:31.133Z,0.20
2023-02-01T20:02:59.338Z,0.26
2023-02-01T20:05:27.793Z,0.29
2023-02-01T20:07:56.697Z,0.28
2023-02-01T20:10:25.134Z,0.31
2023-02-01T20:12:53.382Z,0.32
2023-02-01T20:15:24.793Z,0.31
2023-02-01T20:17:53.661Z,0.30
2023-02-01T20:20:24.228Z,0.30
2023-02-01T20:22:53.340Z,0.29
2023-02-01T20:25:23.010Z,0.28
2023-02-01T20:27:52.762Z,0.30
2023-02-01T20:30:21.365Z,0.31
2023-02-01T20:32:50.706Z,0.30
2023-02-01T20:35:19.643Z,0.29
2023-02-01T20:37:49.096Z,0.30
2023-02-01T20:40:17.987Z,0.29
2023-02-01T20:42:46.358Z,0.31
2023-02-01T20:45:14.730Z,0.30
2023-02-01T20:47:43.581Z,0.33
2023-02-01T20:50:12.329Z,0.39
2023-02-01T20:52:40.627Z,0.40
2023-02-01T20:55:09.380Z,0.40
2023-02-01T20:57:37.800Z,0.43
2023-02-01T21:00:10.375Z,0.43
2023-02-01T21:02:38.917Z,0.39
2023-02-01T21:05:08.829Z,0.38
2023-02-01T21:07:37.874Z,0.40
2023-02-01T21:10:07.266Z,0.40
2023-02-01T21:12:35.919Z,0.38
2023-02-01T21:15:05.723Z,0.38
2023-02-01T21:17:34.781Z,0.38
2023-02-01T21:20:02.969Z,0.37
2023-02-01T21:22:31.307Z,0.36
2023-02-01T21:25:01.883Z,0.33
2023-02-01T21:27:30.346Z,0.31
2023-02-01T21:29:58.603Z,0.35
2023-02-01T21:32:28.768Z,0.33
2023-02-01T21:35:00.765Z,0.30
2023-02-01T21:37:30.842Z,0.29
2023-02-01T21:40:01.803Z,0.30
2023-02-01T21:42:33.798Z,0.31
2023-02-01T21:45:05.747Z,0.32
2023-02-01T21:47:38.796Z,0.33
2023-02-01T21:50:20.797Z,0.36
2023-02-01T21:52:52.334Z,0.38
2023-02-01T21:55:23.124Z,0.36
2023-02-01T21:57:53.393Z,0.38
2023-02-01T22:00:24.169Z,0.38
2023-02-01T22:02:54.306Z,0.40
2023-02-01T22:05:25.080Z,0.40
2023-02-01T22:07:55.800Z,0.38
2023-02-01T22:10:26.717Z,0.38
2023-02-01T22:12:58.323Z,0.34
2023-02-01T22:15:29.308Z,0.35
2023-02-01T22:18:00.807Z,0.34
2023-02-01T22:20:31.773Z,0.36
2023-02-01T22:23:02.777Z,0.34
2023-02-01T22:25:35.770Z,0.36
2023-02-01T22:28:30.324Z,0.40
2023-02-01T22:31:00.904Z,0.39
2023-02-01T22:41:07.273Z,0.43
2023-02-01T22:43:36.718Z,0.42
2023-02-01T22:46:14.057Z,0.42
2023-02-01T22:48:45.062Z,0.42
2023-02-01T22:51:19.610Z,0.43
2023-02-01T22:53:48.214Z,0.43
2023-02-01T22:56:17.216Z,0.43
2023-02-01T22:58:45.896Z,0.41
2023-02-01T23:01:16.444Z,0.43
2023-02-01T23:03:44.863Z,0.39
2023-02-01T23:06:14.567Z,0.37
2023-02-01T23:08:42.896Z,0.37
2023-02-01T23:11:11.479Z,0.35
2023-02-01T23:13:40.707Z,0.35
2023-02-01T23:16:12.132Z,0.37
2023-02-01T23:18:41.510Z,0.34
2023-02-01T23:21:15.991Z,0.33
2023-02-01T23:23:58.017Z,0.35
2023-02-01T23:26:30.320Z,0.32
2023-02-01T23:28:59.730Z,0.33
2023-02-01T23:31:31.105Z,0.35
2023-02-01T23:34:01.459Z,0.33
2023-02-01T23:36:31.470Z,0.30
2023-02-01T23:39:01.879Z,0.32
2023-02-01T23:41:31.900Z,0.34
2023-02-01T23:44:01.187Z,0.32
2023-02-01T23:46:38.605Z,0.33
2023-02-01T23:49:10.462Z,0.29
2023-02-01T23:51:39.217Z,0.32
2023-02-01T23:54:09.272Z,0.31
2023-02-01T23:56:43.282Z,0.25
2023-02-01T23:59:20.134Z,0.18
